Time;durP1;ratioP1;P1;durP2;ratioP2;P2;SDS_P1;SDS_P2;PMS_P1;PMS_P2;Temp;Humidity;BMP_temperature;BMP_pressure;BME280_temperature;BME280_humidity;BME280_pressure;Samples;Min_cycle;Max_cycle;Signal;HPM_P1;HPM_P2
2024/04/10 00:02:11;;;;;;;1.67;1.30;;;7.20;99.90;;;;;;5519808;25;20291;-87
2024/04/10 00:04:37;;;;;;;2.60;1.02;;;7.20;99.90;;;;;;5501567;25;20860;-86
2024/04/10 00:07:06;;;;;;;2.88;1.00;;;7.30;99.90;;;;;;5515078;25;20275;-86
2024/04/10 00:09:33;;;;;;;0.77;0.70;;;7.20;99.90;;;;;;5521351;25;20755;-86
2024/04/10 00:12:02;;;;;;;2.90;1.38;;;7.20;99.90;;;;;;5520620;25;20225;-86
2024/04/10 00:14:28;;;;;;;2.63;1.00;;;7.30;99.90;;;;;;5498108;25;20272;-86
2024/04/10 00:17:00;;;;;;;1.25;1.15;;;7.20;99.90;;;;;;5511992;25;20324;-86
2024/04/10 00:19:26;;;;;;;0.75;0.70;;;7.20;99.90;;;;;;5497804;25;20339;-86
2024/04/10 00:21:56;;;;;;;1.65;0.88;;;7.10;99.90;;;;;;5523088;25;20335;-86
2024/04/10 00:24:22;;;;;;;2.88;0.90;;;7.10;99.90;;;;;;5514880;25;20236;-87
2024/04/10 00:26:51;;;;;;;2.85;0.80;;;7.10;99.90;;;;;;5517182;25;20725;-86
2024/04/10 00:29:17;;;;;;;0.90;0.60;;;7.10;99.90;;;;;;5499726;25;20232;-87
2024/04/10 00:31:47;;;;;;;6.75;1.50;;;7.10;99.90;;;;;;5527607;25;20274;-87
2024/04/10 00:34:15;;;;;;;1.58;1.23;;;7.00;99.90;;;;;;5467277;26;20612;-87
2024/04/10 00:36:44;;;;;;;1.48;1.05;;;7.00;99.90;;;;;;5495180;25;20269;-87
2024/04/10 00:39:10;;;;;;;2.15;1.00;;;7.10;99.90;;;;;;5530862;25;20228;-86
2024/04/10 00:41:39;;;;;;;1.00;0.90;;;7.10;99.90;;;;;;5473960;25;20237;-87
2024/04/10 00:44:05;;;;;;;3.57;1.30;;;7.10;99.90;;;;;;5507612;25;20241;-86
2024/04/10 00:46:35;;;;;;;1.00;0.90;;;7.10;99.90;;;;;;5508949;25;20314;-87
2024/04/10 00:49:01;;;;;;;0.90;0.90;;;7.10;99.90;;;;;;5505112;25;20236;-87
2024/04/10 00:51:33;;;;;;;3.03;1.00;;;7.10;99.90;;;;;;5511104;25;20288;-86
2024/04/10 00:54:02;;;;;;;2.10;1.00;;;7.10;99.90;;;;;;5515437;25;20224;-86
2024/04/10 00:56:31;;;;;;;4.97;1.10;;;7.00;99.90;;;;;;5486637;25;20986;-87
2024/04/10 00:59:00;;;;;;;1.20;0.85;;;7.00;99.90;;;;;;5512120;25;20297;-86
2024/04/10 01:01:28;;;;;;;3.17;1.10;;;7.00;99.90;;;;;;5535467;25;20370;-86
2024/04/10 01:03:54;;;;;;;1.75;1.15;;;7.00;99.90;;;;;;5487477;25;20354;-86
2024/04/10 01:06:30;;;;;;;1.60;1.05;;;7.00;99.90;;;;;;5514458;25;20245;-87
2024/04/10 01:08:58;;;;;;;2.00;1.10;;;7.00;99.90;;;;;;5506321;25;20335;-86
2024/04/10 01:11:28;;;;;;;1.25;1.10;;;7.10;99.90;;;;;;5508125;25;20267;-87
2024/04/10 01:13:54;;;;;;;3.20;1.20;;;7.10;99.90;;;;;;5471375;26;20242;-87
2024/04/10 01:16:22;;;;;;;2.95;0.90;;;7.10;99.90;;;;;;5494245;25;20229;-87
2024/04/10 01:18:50;;;;;;;1.93;1.03;;;7.00;99.90;;;;;;5477290;26;20286;-86
2024/04/10 01:21:18;;;;;;;1.00;0.90;;;6.90;99.90;;;;;;5516281;25;20279;-86
2024/04/10 01:23:48;;;;;;;2.57;1.10;;;6.90;99.90;;;;;;5497800;25;20318;-87
2024/04/10 01:26:17;;;;;;;1.73;1.10;;;6.80;99.90;;;;;;5513194;25;20233;-86
2024/04/10 01:28:44;;;;;;;1.05;0.60;;;6.80;99.90;;;;;;5529461;25;20347;-86
2024/04/10 01:31:12;;;;;;;1.35;0.90;;;6.90;99.90;;;;;;5509367;25;20319;-87
2024/04/10 01:33:38;;;;;;;2.00;1.00;;;6.90;99.90;;;;;;5508064;25;20758;-86
2024/04/10 01:36:07;;;;;;;1.60;1.10;;;6.80;99.90;;;;;;5489687;25;20294;-86
2024/04/10 01:38:33;;;;;;;2.58;0.90;;;6.90;99.90;;;;;;5514739;25;20726;-86
2024/04/10 01:41:05;;;;;;;1.50;0.93;;;6.90;99.90;;;;;;5501849;25;20301;-86
2024/04/10 01:43:31;;;;;;;1.20;0.98;;;6.90;99.90;;;;;;5468588;25;20240;-86
2024/04/10 01:45:59;;;;;;;1.88;0.90;;;7.00;99.90;;;;;;5517323;25;20266;-86
2024/04/10 01:48:25;;;;;;;2.00;1.02;;;7.00;99.90;;;;;;5499571;25;20264;-86
2024/04/10 01:50:54;;;;;;;2.65;1.23;;;7.00;99.90;;;;;;5502630;25;20235;-86
2024/04/10 01:53:20;;;;;;;1.80;1.30;;;7.00;99.90;;;;;;5499372;25;20248;-86
2024/04/10 01:55:49;;;;;;;1.55;0.80;;;7.00;99.90;;;;;;5506845;25;20794;-85
2024/04/10 01:58:17;;;;;;;1.50;1.20;;;7.00;99.90;;;;;;5503644;25;20380;-86
2024/04/10 02:00:46;;;;;;;2.78;1.33;;;7.00;99.90;;;;;;5473101;26;20230;-86
2024/04/10 02:03:12;;;;;;;2.92;1.10;;;6.90;99.90;;;;;;5503242;26;20651;-86
2024/04/10 02:05:41;;;;;;;1.55;1.10;;;7.00;99.90;;;;;;5498364;25;20253;-85
2024/04/10 02:08:07;;;;;;;1.67;1.00;;;7.00;99.90;;;;;;5514199;25;20228;-86
2024/04/10 02:10:35;;;;;;;1.58;1.02;;;6.90;99.90;;;;;;5505856;25;20248;-86
2024/04/10 02:13:01;;;;;;;3.53;1.23;;;6.90;99.90;;;;;;5507473;25;20349;-85
2024/04/10 02:15:33;;;;;;;0.88;0.88;;;6.90;99.90;;;;;;5505611;25;20716;-86
2024/04/10 02:17:59;;;;;;;1.73;0.90;;;7.00;99.90;;;;;;5508007;25;20606;-86
2024/04/10 02:20:27;;;;;;;2.45;1.13;;;7.00;99.90;;;;;;5505939;25;20232;-86
2024/04/10 02:22:53;;;;;;;1.42;0.77;;;7.10;99.90;;;;;;5471138;26;20236;-86
2024/04/10 02:25:21;;;;;;;1.73;0.90;;;7.00;99.90;;;;;;5503242;25;20873;-85
2024/04/10 02:27:47;;;;;;;1.35;0.95;;;6.90;99.90;;;;;;5497451;25;20299;-85
2024/04/10 02:30:16;;;;;;;1.00;0.90;;;6.90;99.90;;;;;;5508396;25;20221;-85
2024/04/10 02:32:46;;;;;;;2.65;1.00;;;6.90;99.90;;;;;;5507903;25;20328;-86
2024/04/10 02:35:15;;;;;;;3.15;1.30;;;6.90;99.90;;;;;;5517746;25;20276;-85
2024/04/10 02:37:40;;;;;;;3.55;1.15;;;6.90;99.90;;;;;;5520751;25;20326;-85
2024/04/10 02:40:09;;;;;;;1.90;0.80;;;6.80;99.90;;;;;;5511466;25;20244;-85
2024/04/10 02:42:35;;;;;;;1.27;0.93;;;6.90;99.90;;;;;;5504310;25;20374;-86
2024/04/10 02:45:03;;;;;;;3.97;1.10;;;6.90;99.90;;;;;;5505572;25;20713;-85
2024/04/10 02:47:29;;;;;;;1.33;0.80;;;6.80;99.90;;;;;;5514279;25;20276;-85
2024/04/10 02:50:00;;;;;;;3.83;0.97;;;6.90;99.90;;;;;;5508266;25;20774;-85
2024/04/10 02:52:26;;;;;;;2.60;0.90;;;6.80;99.90;;;;;;5517639;25;20866;-85
2024/04/10 02:54:55;;;;;;;2.75;1.10;;;6.80;99.90;;;;;;5502583;25;20332;-85
2024/04/10 02:57:21;;;;;;;2.85;0.90;;;6.80;99.90;;;;;;5521164;25;20237;-86
2024/04/10 02:59:49;;;;;;;0.82;0.70;;;6.80;99.90;;;;;;5509329;25;20252;-85
2024/04/10 03:02:15;;;;;;;1.13;0.82;;;6.90;99.90;;;;;;5504213;25;20233;-86
2024/04/10 03:04:44;;;;;;;2.03;1.00;;;6.90;99.90;;;;;;5506020;25;20223;-85
2024/04/10 03:07:15;;;;;;;2.55;1.00;;;6.90;99.90;;;;;;5505237;25;20320;-86
2024/04/10 03:09:43;;;;;;;1.52;0.93;;;6.90;99.90;;;;;;5529444;25;20227;-85
2024/04/10 03:12:10;;;;;;;2.28;1.30;;;6.90;99.90;;;;;;5487736;25;20292;-86
2024/04/10 03:14:42;;;;;;;2.45;1.10;;;6.90;99.90;;;;;;5517093;25;20236;-86
2024/04/10 03:17:11;;;;;;;4.25;1.23;;;6.90;99.90;;;;;;5489010;25;20358;-85
2024/04/10 03:19:39;;;;;;;1.20;1.10;;;6.80;99.90;;;;;;5519330;25;20337;-86
2024/04/10 03:22:05;;;;;;;1.30;1.17;;;6.80;99.90;;;;;;5500293;25;20232;-86
2024/04/10 03:24:37;;;;;;;1.88;1.17;;;6.80;99.90;;;;;;5464631;25;20279;-86
2024/04/10 03:27:03;;;;;;;1.10;1.00;;;7.00;99.90;;;;;;5521063;25;20279;-86
2024/04/10 03:29:31;;;;;;;1.52;1.00;;;7.10;99.90;;;;;;5521046;25;20268;-85
2024/04/10 03:31:57;;;;;;;3.22;0.90;;;7.10;99.90;;;;;;5513304;26;20224;-85
2024/04/10 03:34:26;;;;;;;2.55;1.25;;;7.00;99.90;;;;;;5515694;25;20330;-86
2024/04/10 03:36:53;;;;;;;1.80;0.90;;;7.00;99.90;;;;;;5509658;25;20303;-85
2024/04/10 03:39:22;;;;;;;1.90;0.90;;;7.00;99.90;;;;;;5523974;25;20263;-85
2024/04/10 03:41:50;;;;;;;2.67;0.80;;;7.00;99.90;;;;;;5458693;26;20297;-85
2024/04/10 03:44:19;;;;;;;1.25;0.90;;;7.00;99.90;;;;;;5498996;25;20336;-86
2024/04/10 03:46:48;;;;;;;1.38;0.82;;;6.90;99.90;;;;;;5530652;25;20343;-86
2024/04/10 03:49:17;;;;;;;1.63;0.80;;;7.00;99.90;;;;;;5511177;25;20229;-85
2024/04/10 03:51:42;;;;;;;2.27;1.17;;;6.90;99.90;;;;;;5520169;25;20274;-86
2024/04/10 03:54:11;;;;;;;1.13;0.82;;;6.90;99.90;;;;;;5495676;25;20237;-85
2024/04/10 03:56:37;;;;;;;1.88;1.00;;;6.90;99.90;;;;;;5505358;25;20812;-86
2024/04/10 03:59:08;;;;;;;1.30;0.93;;;6.80;99.90;;;;;;5500146;25;20237;-85
2024/04/10 04:01:34;;;;;;;3.00;1.20;;;6.80;99.90;;;;;;5463034;25;20288;-86
2024/04/10 04:04:03;;;;;;;2.13;1.00;;;6.80;99.90;;;;;;5468638;26;20237;-86
2024/04/10 04:06:30;;;;;;;1.85;0.95;;;6.90;99.90;;;;;;5506649;25;20741;-86
2024/04/10 04:08:59;;;;;;;3.10;1.30;;;6.80;99.90;;;;;;5495466;25;20329;-85
2024/04/10 04:11:25;;;;;;;1.67;1.13;;;6.80;99.90;;;;;;5491170;25;20239;-85
2024/04/10 04:13:53;;;;;;;2.38;1.00;;;6.80;99.90;;;;;;5511808;25;20244;-85
2024/04/10 04:16:22;;;;;;;2.42;1.10;;;6.70;99.90;;;;;;5511728;25;20775;-85
2024/04/10 04:18:51;;;;;;;1.47;1.07;;;6.70;99.90;;;;;;5501646;25;20231;-85
2024/04/10 04:21:17;;;;;;;1.58;1.27;;;6.80;99.90;;;;;;5455917;26;20754;-85
2024/04/10 04:23:46;;;;;;;1.50;0.90;;;6.80;99.90;;;;;;5511170;25;20272;-86
2024/04/10 04:26:12;;;;;;;1.17;1.05;;;6.80;99.90;;;;;;5517384;25;20267;-85
2024/04/10 04:28:41;;;;;;;3.60;1.25;;;6.80;99.90;;;;;;5496407;25;20563;-85
2024/04/10 04:31:06;;;;;;;2.20;1.05;;;6.70;99.90;;;;;;5498074;25;20229;-85
2024/04/10 04:33:39;;;;;;;2.05;1.10;;;6.70;99.90;;;;;;5507531;25;20853;-85
2024/04/10 04:36:06;;;;;;;3.30;1.40;;;6.80;99.90;;;;;;5520732;25;20228;-86
2024/04/10 04:38:35;;;;;;;2.13;1.05;;;6.80;99.90;;;;;;5503159;25;20713;-85
2024/04/10 04:41:01;;;;;;;1.58;1.00;;;6.90;99.90;;;;;;5512173;25;20232;-85
2024/04/10 04:43:29;;;;;;;1.10;1.00;;;6.90;99.90;;;;;;5492780;25;20747;-85
2024/04/10 04:45:55;;;;;;;2.75;1.00;;;6.90;99.90;;;;;;5515658;25;22473;-85
2024/04/10 04:48:24;;;;;;;1.52;1.08;;;6.90;99.90;;;;;;5469544;26;20263;-85
2024/04/10 04:50:54;;;;;;;1.48;1.33;;;6.90;99.90;;;;;;5507830;25;20335;-86
2024/04/10 04:53:22;;;;;;;2.20;1.40;;;6.90;99.90;;;;;;5500320;25;20233;-85
2024/04/10 04:55:48;;;;;;;2.42;0.98;;;6.80;99.90;;;;;;5494275;25;20317;-86
2024/04/10 04:58:17;;;;;;;2.28;1.00;;;6.90;99.90;;;;;;5496175;25;20469;-85
2024/04/10 05:00:43;;;;;;;3.20;1.27;;;6.90;99.90;;;;;;5519699;25;20235;-87
2024/04/10 05:04:54;;;;;;;2.00;1.23;;;6.90;99.90;;;;;;5495393;25;20754;-86
2024/04/10 05:06:04;;;;;;;1.38;0.80;;;6.90;99.90;;;;;;5507317;25;20253;-85
2024/04/10 05:08:33;;;;;;;1.27;1.05;;;6.90;99.90;;;;;;5494745;25;20227;-87
2024/04/10 05:11:01;;;;;;;3.72;1.25;;;6.90;99.90;;;;;;5526015;25;20229;-86
2024/04/10 05:13:30;;;;;;;2.83;1.17;;;6.90;99.90;;;;;;5463972;25;20309;-86
2024/04/10 05:15:56;;;;;;;3.35;1.20;;;6.90;99.90;;;;;;5509335;25;21164;-87
2024/04/10 05:18:25;;;;;;;1.57;0.97;;;6.90;99.90;;;;;;5506455;26;20240;-89
2024/04/10 05:20:51;;;;;;;2.13;1.33;;;6.90;99.90;;;;;;5463505;26;21408;-88
2024/04/10 05:23:23;;;;;;;1.60;1.30;;;6.90;99.90;;;;;;5491914;25;20271;-86
2024/04/10 05:25:49;;;;;;;1.75;1.20;;;7.00;99.90;;;;;;5471364;25;20254;-85
2024/04/10 05:28:18;;;;;;;1.48;1.05;;;7.00;99.90;;;;;;5504433;25;20248;-85
2024/04/10 05:30:43;;;;;;;1.58;1.20;;;7.00;99.90;;;;;;5481942;26;20306;-87
2024/04/10 05:33:13;;;;;;;2.40;1.42;;;7.00;99.90;;;;;;5498209;26;20229;-86
2024/04/10 05:35:39;;;;;;;2.65;1.20;;;7.00;99.90;;;;;;5502554;25;20291;-86
2024/04/10 05:38:08;;;;;;;1.73;1.05;;;7.10;99.90;;;;;;5507560;25;20333;-85
2024/04/10 05:40:36;;;;;;;1.77;1.02;;;7.10;99.80;;;;;;5503000;25;20365;-86
2024/04/10 05:43:05;;;;;;;1.70;1.40;;;7.10;99.90;;;;;;5497746;25;20237;-86
2024/04/10 05:45:31;;;;;;;1.95;1.00;;;7.10;99.90;;;;;;5471655;26;20316;-86
2024/04/10 05:48:00;;;;;;;3.63;1.23;;;7.10;99.90;;;;;;5508048;25;20266;-86
2024/04/10 05:50:26;;;;;;;2.08;1.30;;;7.10;99.90;;;;;;5486017;25;20296;-86
2024/04/10 05:52:55;;;;;;;2.40;1.30;;;7.10;99.90;;;;;;5512583;25;20322;-87
2024/04/10 05:55:20;;;;;;;1.38;0.90;;;7.20;99.90;;;;;;5490549;25;20357;-87
2024/04/10 05:57:52;;;;;;;1.70;1.05;;;7.20;99.90;;;;;;5507903;25;20296;-87
2024/04/10 06:00:19;;;;;;;1.23;1.00;;;7.30;99.50;;;;;;5500599;26;20296;-88
2024/04/10 06:02:48;;;;;;;1.48;1.00;;;7.30;99.10;;;;;;5517631;25;20700;-87
2024/04/10 06:05:14;;;;;;;3.13;1.33;;;7.30;98.70;;;;;;5508703;26;20225;-88
2024/04/10 06:07:44;;;;;;;4.82;1.30;;;7.40;99.10;;;;;;5523555;25;20300;-85
2024/04/10 06:10:11;;;;;;;2.45;1.40;;;7.40;99.10;;;;;;5509696;25;20271;-86
2024/04/10 06:12:40;;;;;;;2.63;1.20;;;7.40;98.20;;;;;;5508123;25;20241;-85
2024/04/10 06:15:08;;;;;;;2.42;1.45;;;7.40;98.20;;;;;;5509316;25;20233;-86
2024/04/10 06:17:37;;;;;;;2.20;1.15;;;7.50;98.40;;;;;;5505701;25;20281;-85
2024/04/10 06:20:05;;;;;;;1.77;1.10;;;7.60;98.70;;;;;;5493655;25;20241;-85
2024/04/10 06:22:33;;;;;;;1.73;1.00;;;7.60;98.30;;;;;;5466468;26;20589;-85
2024/04/10 06:24:59;;;;;;;3.95;1.10;;;7.70;98.20;;;;;;5515500;25;20354;-85
2024/04/10 06:27:28;;;;;;;2.13;1.30;;;7.70;98.20;;;;;;5496243;25;20949;-86
2024/04/10 06:29:54;;;;;;;2.35;1.20;;;7.80;97.80;;;;;;5496704;25;20422;-85
2024/04/10 06:32:25;;;;;;;3.45;1.40;;;7.90;97.30;;;;;;5500477;25;20245;-85
2024/04/10 06:34:51;;;;;;;2.70;1.33;;;8.00;96.70;;;;;;5531167;25;20223;-85
2024/04/10 06:37:20;;;;;;;3.13;1.20;;;8.00;96.70;;;;;;5534197;25;20327;-85
2024/04/10 06:39:46;;;;;;;3.90;1.33;;;8.00;97.20;;;;;;5488164;26;20409;-86
2024/04/10 06:42:15;;;;;;;5.15;1.27;;;8.10;96.60;;;;;;5491325;26;20229;-85
2024/04/10 06:44:41;;;;;;;3.35;1.40;;;8.20;95.70;;;;;;5508028;25;20236;-86
2024/04/10 06:47:09;;;;;;;3.38;1.33;;;8.40;95.00;;;;;;5504918;26;20365;-86
2024/04/10 06:49:38;;;;;;;4.88;1.42;;;8.40;94.90;;;;;;5509591;26;20233;-85
2024/04/10 06:52:07;;;;;;;3.38;1.23;;;8.40;95.20;;;;;;5496115;25;20327;-85
2024/04/10 06:54:32;;;;;;;4.07;1.40;;;8.40;95.00;;;;;;5503949;25;20224;-85
2024/04/10 06:57:01;;;;;;;3.92;1.27;;;8.40;95.20;;;;;;5520308;25;20232;-86
2024/04/10 06:59:27;;;;;;;1.60;1.20;;;8.40;95.30;;;;;;5496797;25;20376;-85
2024/04/10 07:01:56;;;;;;;2.05;1.15;;;8.50;94.20;;;;;;5481490;25;20235;-85
2024/04/10 07:04:21;;;;;;;2.42;1.10;;;8.50;94.30;;;;;;5503914;25;20312;-85
2024/04/10 07:06:53;;;;;;;4.07;1.38;;;8.50;93.90;;;;;;5483337;25;20227;-85
2024/04/10 07:09:19;;;;;;;4.90;1.50;;;8.60;94.10;;;;;;5510837;25;20655;-85
2024/04/10 07:11:47;;;;;;;3.40;1.20;;;8.60;94.00;;;;;;5504916;26;20343;-85
2024/04/10 07:14:13;;;;;;;2.70;1.50;;;8.60;94.70;;;;;;5511139;26;20329;-85
2024/04/10 07:16:43;;;;;;;4.38;1.35;;;8.70;95.20;;;;;;5517364;25;20248;-85
2024/04/10 07:19:09;;;;;;;3.20;1.45;;;8.70;94.20;;;;;;5505682;25;20240;-85
2024/04/10 07:21:38;;;;;;;3.47;1.30;;;8.80;93.80;;;;;;5488574;25;20570;-85
2024/04/10 07:24:08;;;;;;;4.68;1.35;;;8.70;93.90;;;;;;5516177;25;20245;-85
2024/04/10 07:26:36;;;;;;;2.08;1.30;;;8.70;93.60;;;;;;5529491;25;20316;-85
2024/04/10 07:29:03;;;;;;;4.90;1.48;;;8.60;93.90;;;;;;5507011;25;20227;-85
2024/04/10 07:31:36;;;;;;;1.98;1.20;;;8.50;94.10;;;;;;5495344;25;20233;-85
2024/04/10 07:34:03;;;;;;;2.97;1.48;;;8.40;93.60;;;;;;5498328;26;20229;-85
2024/04/10 07:36:33;;;;;;;7.22;1.80;;;8.40;94.20;;;;;;5496137;25;20279;-85
2024/04/10 07:38:59;;;;;;;3.72;1.40;;;8.30;94.30;;;;;;5511809;25;20233;-86
2024/04/10 07:41:30;;;;;;;2.95;1.52;;;8.20;94.50;;;;;;5495242;25;20321;-86
2024/04/10 07:43:56;;;;;;;1.77;1.50;;;8.10;94.50;;;;;;5487202;26;20280;-85
2024/04/10 07:46:25;;;;;;;3.25;1.70;;;8.20;94.80;;;;;;5489068;26;20705;-85
2024/04/10 07:48:52;;;;;;;3.72;1.40;;;8.20;94.50;;;;;;5502113;25;20296;-85
2024/04/10 07:51:21;;;;;;;1.95;1.38;;;8.30;94.40;;;;;;5530049;25;20716;-85
2024/04/10 07:53:48;;;;;;;3.10;1.70;;;8.50;95.00;;;;;;5513037;25;20405;-85
2024/04/10 07:56:17;;;;;;;2.22;1.60;;;8.60;93.80;;;;;;5495763;25;20228;-85
2024/04/10 07:58:46;;;;;;;3.70;1.70;;;8.60;93.50;;;;;;5518559;25;20706;-85
2024/04/10 08:01:16;;;;;;;6.15;2.20;;;8.70;93.20;;;;;;5481937;26;20729;-85
2024/04/10 08:03:42;;;;;;;2.45;1.73;;;8.70;93.40;;;;;;5486580;26;20244;-85
2024/04/10 08:06:12;;;;;;;5.20;1.50;;;8.90;92.10;;;;;;5483176;26;20229;-85
2024/04/10 08:08:39;;;;;;;3.22;1.73;;;8.80;92.90;;;;;;5527092;25;20744;-85
2024/04/10 08:11:10;;;;;;;3.70;1.50;;;8.80;93.40;;;;;;5504548;25;20300;-85
2024/04/10 08:13:36;;;;;;;5.47;1.92;;;8.80;93.00;;;;;;5491537;26;20229;-85
2024/04/10 08:16:11;;;;;;;3.85;1.98;;;8.90;93.20;;;;;;5507210;25;20336;-85
2024/04/10 08:18:39;;;;;;;4.93;1.95;;;8.80;93.40;;;;;;5538661;25;20228;-85
2024/04/10 08:21:09;;;;;;;3.65;1.95;;;8.80;93.70;;;;;;5508920;26;20312;-85
2024/04/10 08:23:36;;;;;;;3.40;1.95;;;8.80;93.20;;;;;;5488254;26;20324;-85
2024/04/10 08:26:12;;;;;;;3.13;1.70;;;8.90;93.50;;;;;;5449338;26;20276;-85
2024/04/10 08:28:45;;;;;;;3.40;1.90;;;9.00;92.90;;;;;;5508721;26;20682;-85
2024/04/10 08:31:17;;;;;;;7.93;2.00;;;9.20;93.30;;;;;;5493683;26;20705;-85
2024/04/10 08:33:43;;;;;;;2.58;1.80;;;9.20;92.40;;;;;;5526086;25;20229;-85
2024/04/10 08:36:13;;;;;;;3.58;1.75;;;9.30;91.90;;;;;;5507323;25;20340;-85
2024/04/10 08:38:39;;;;;;;5.90;1.70;;;9.40;91.00;;;;;;5531491;25;20236;-85
2024/04/10 08:41:14;;;;;;;2.42;1.65;;;9.30;91.20;;;;;;5512731;25;20230;-85
2024/04/10 08:43:42;;;;;;;3.85;1.88;;;9.30;91.00;;;;;;5513612;26;20345;-85
2024/04/10 08:46:11;;;;;;;4.13;1.60;;;9.40;91.30;;;;;;5512332;25;20232;-85
2024/04/10 08:48:41;;;;;;;4.75;1.92;;;9.40;91.80;;;;;;5511217;25;20236;-85
2024/04/10 08:51:13;;;;;;;6.60;2.30;;;9.30;91.80;;;;;;5471419;25;20239;-86
2024/04/10 08:53:41;;;;;;;4.88;1.80;;;9.40;92.50;;;;;;5503517;25;20776;-85
2024/04/10 08:56:09;;;;;;;4.18;1.92;;;9.70;90.80;;;;;;5512759;25;22047;-85
2024/04/10 08:58:35;;;;;;;5.75;1.90;;;10.20;88.10;;;;;;5508265;25;20718;-86
2024/04/10 09:01:04;;;;;;;3.22;1.70;;;10.50;83.80;;;;;;5494258;25;20248;-85
2024/04/10 09:03:30;;;;;;;6.78;2.10;;;10.80;84.50;;;;;;5503116;25;20745;-86
2024/04/10 09:06:09;;;;;;;4.60;1.80;;;11.00;82.70;;;;;;5511718;25;20245;-85
2024/04/10 09:08:37;;;;;;;3.60;2.00;;;11.00;81.30;;;;;;5489280;26;20238;-85
2024/04/10 09:11:06;;;;;;;3.35;1.70;;;11.10;77.10;;;;;;5489803;25;20261;-86
2024/04/10 09:13:31;;;;;;;4.70;1.75;;;11.40;71.30;;;;;;5490143;26;20575;-86
2024/04/10 09:16:02;;;;;;;4.15;1.80;;;11.70;62.90;;;;;;5496778;26;20264;-86
2024/04/10 09:18:28;;;;;;;8.02;1.88;;;11.70;66.30;;;;;;5519127;25;20236;-85
2024/04/10 09:21:12;;;;;;;3.72;1.85;;;11.70;62.50;;;;;;5524940;25;20297;-86
2024/04/10 09:23:38;;;;;;;4.85;2.08;;;11.90;59.30;;;;;;5507612;25;20263;-85
2024/04/10 09:26:08;;;;;;;5.78;1.92;;;11.70;63.10;;;;;;5510994;25;20710;-86
2024/04/10 09:28:34;;;;;;;3.25;1.50;;;11.20;62.40;;;;;;5484502;26;20263;-85
2024/04/10 09:31:02;;;;;;;4.57;2.08;;;11.10;62.60;;;;;;5501141;26;20275;-86
2024/04/10 09:33:35;;;;;;;5.32;1.85;;;11.20;68.90;;;;;;5518312;26;20450;-85
2024/04/10 09:36:03;;;;;;;6.30;2.00;;;11.40;65.50;;;;;;5504014;26;20345;-86
2024/04/10 09:38:36;;;;;;;7.22;1.80;;;11.60;64.40;;;;;;5503253;25;20230;-86
2024/04/10 09:41:04;;;;;;;3.63;1.63;;;11.70;62.30;;;;;;5493262;25;20832;-86
2024/04/10 09:43:33;;;;;;;7.30;1.77;;;11.70;55.10;;;;;;5495452;26;20229;-86
2024/04/10 09:46:02;;;;;;;5.00;1.58;;;11.70;55.90;;;;;;5498892;26;20274;-86
2024/04/10 09:48:33;;;;;;;5.47;1.70;;;12.20;50.90;;;;;;5456623;26;20241;-85
2024/04/10 09:51:04;;;;;;;4.60;1.92;;;12.30;48.90;;;;;;5514968;25;20236;-86
2024/04/10 09:53:35;;;;;;;4.78;2.00;;;12.30;49.60;;;;;;5499724;26;20722;-86
2024/04/10 09:56:03;;;;;;;4.15;1.67;;;12.50;45.70;;;;;;5498627;26;20260;-86
2024/04/10 09:58:34;;;;;;;5.53;1.67;;;12.60;44.40;;;;;;5498489;25;20237;-86
2024/04/10 10:01:01;;;;;;;5.70;1.90;;;12.30;45.30;;;;;;5492281;26;20288;-85
2024/04/10 10:03:30;;;;;;;4.57;1.70;;;12.20;45.30;;;;;;5511465;26;20224;-86
2024/04/10 10:06:01;;;;;;;5.88;1.65;;;12.00;44.00;;;;;;5500214;25;20241;-86
2024/04/10 10:08:29;;;;;;;4.45;1.88;;;11.70;42.90;;;;;;5490465;26;20263;-85
2024/04/10 10:10:58;;;;;;;3.67;1.80;;;11.60;45.30;;;;;;5517461;25;21010;-85
2024/04/10 10:13:30;;;;;;;3.13;1.60;;;11.70;48.30;;;;;;5516645;26;20558;-86
2024/04/10 10:15:57;;;;;;;6.00;2.00;;;11.90;48.50;;;;;;5501070;25;20787;-86
2024/04/10 10:18:26;;;;;;;5.65;1.80;;;11.80;43.00;;;;;;5532229;25;20228;-86
2024/04/10 10:21:01;;;;;;;3.25;1.80;;;11.90;44.30;;;;;;5501405;25;20300;-86
2024/04/10 10:23:29;;;;;;;4.75;1.60;;;12.00;41.70;;;;;;5492377;25;20365;-85
2024/04/10 10:25:58;;;;;;;3.08;1.77;;;12.60;40.30;;;;;;5517730;26;20236;-86
2024/04/10 10:28:29;;;;;;;2.70;1.50;;;13.60;35.00;;;;;;5494442;26;20229;-86
2024/04/10 10:31:05;;;;;;;4.40;1.58;;;14.20;27.10;;;;;;5503192;25;20233;-86
2024/04/10 10:33:34;;;;;;;5.15;1.67;;;13.70;26.70;;;;;;5508265;25;20233;-86
2024/04/10 10:36:00;;;;;;;4.22;2.17;;;13.50;28.40;;;;;;5521118;25;20285;-85
2024/04/10 10:38:28;;;;;;;2.92;1.80;;;13.50;31.90;;;;;;5511422;25;20240;-86
2024/04/10 10:41:04;;;;;;;4.85;1.55;;;13.50;30.00;;;;;;5506953;25;20236;-85
2024/04/10 10:43:32;;;;;;;3.70;1.75;;;13.20;29.70;;;;;;5458573;26;20263;-86
2024/04/10 10:45:58;;;;;;;3.83;1.60;;;12.80;28.70;;;;;;5528251;25;20329;-85
2024/04/10 10:48:28;;;;;;;3.95;1.90;;;12.50;30.50;;;;;;5501007;25;20232;-86
2024/04/10 10:50:54;;;;;;;4.10;1.70;;;12.40;30.70;;;;;;5503322;25;20231;-86
2024/04/10 10:53:24;;;;;;;3.50;1.80;;;13.00;27.60;;;;;;5462480;26;20240;-86
2024/04/10 10:55:51;;;;;;;5.22;1.75;;;13.70;26.70;;;;;;5522859;25;20373;-86
2024/04/10 10:58:23;;;;;;;6.00;1.70;;;14.40;22.50;;;;;;5514900;25;20268;-86
2024/04/10 11:00:49;;;;;;;3.78;1.90;;;14.60;24.10;;;;;;5499452;26;20224;-86
2024/04/10 11:03:19;;;;;;;3.50;1.60;;;14.90;22.00;;;;;;5506639;25;20233;-86
2024/04/10 11:05:46;;;;;;;4.13;1.42;;;15.30;16.50;;;;;;5527510;25;20302;-86
2024/04/10 11:08:15;;;;;;;5.05;1.60;;;16.10;14.30;;;;;;5514412;25;20591;-86
2024/04/10 11:10:40;;;;;;;3.72;1.67;;;15.90;18.10;;;;;;5500608;25;20283;-86
2024/04/10 11:13:10;;;;;;;4.47;1.90;;;15.60;17.50;;;;;;5495402;25;20228;-86
2024/04/10 11:15:45;;;;;;;6.25;2.10;;;15.40;18.60;;;;;;5498475;25;20229;-86
2024/04/10 11:18:16;;;;;;;4.60;2.00;;;15.30;18.90;;;;;;5498002;26;20261;-86
2024/04/10 11:20:42;;;;;;;5.68;1.70;;;15.00;21.80;;;;;;5495161;25;20346;-86
2024/04/10 11:23:11;;;;;;;3.25;1.55;;;14.90;20.70;;;;;;5493239;26;20725;-86
2024/04/10 11:25:37;;;;;;;3.83;1.70;;;14.60;17.90;;;;;;5500765;25;20223;-85
2024/04/10 11:28:07;;;;;;;6.18;1.30;;;14.40;17.50;;;;;;5504409;26;20270;-86
2024/04/10 11:30:33;;;;;;;7.53;1.38;;;14.20;17.30;;;;;;5503824;25;20566;-86
2024/04/10 11:33:06;;;;;;;3.67;1.50;;;13.70;17.20;;;;;;5500350;25;20252;-85
2024/04/10 11:35:33;;;;;;;1.92;1.52;;;13.50;17.40;;;;;;5500127;25;20225;-86
2024/04/10 11:38:01;;;;;;;3.50;1.52;;;13.30;18.60;;;;;;5490502;26;20278;-86
2024/04/10 11:40:28;;;;;;;2.90;1.73;;;13.40;18.90;;;;;;5489919;26;20240;-87
2024/04/10 11:42:56;;;;;;;3.00;1.50;;;13.60;22.70;;;;;;5510529;25;20232;-86
2024/04/10 11:45:22;;;;;;;3.47;1.52;;;13.60;18.70;;;;;;5507971;25;20343;-86
2024/04/10 11:47:52;;;;;;;4.97;1.60;;;13.70;20.40;;;;;;5498034;25;20232;-86
2024/04/10 11:50:24;;;;;;;3.53;1.42;;;13.60;18.80;;;;;;5511744;25;20233;-86
2024/04/10 11:52:50;;;;;;;4.60;1.55;;;13.50;18.60;;;;;;5496379;26;20229;-86
2024/04/10 11:55:19;;;;;;;7.00;1.90;;;13.60;18.30;;;;;;5502963;26;20236;-87
2024/04/10 11:57:45;;;;;;;5.70;1.60;;;13.50;18.50;;;;;;5498651;25;20341;-86
2024/04/10 12:00:16;;;;;;;6.18;1.77;;;13.50;18.40;;;;;;5523596;25;20708;-84
2024/04/10 12:02:42;;;;;;;4.60;2.03;;;13.60;18.30;;;;;;5495143;25;20332;-87
2024/04/10 12:05:11;;;;;;;5.88;1.70;;;13.60;19.90;;;;;;5506875;25;20237;-87
2024/04/10 12:07:41;;;;;;;3.83;1.48;;;13.90;18.40;;;;;;5520554;25;20287;-87
2024/04/10 12:10:11;;;;;;;4.35;1.42;;;13.90;17.70;;;;;;5488222;26;20325;-87
2024/04/10 12:12:36;;;;;;;3.15;1.60;;;13.80;18.30;;;;;;5529379;25;20216;-86
2024/04/10 12:15:07;;;;;;;5.18;1.50;;;13.80;17.80;;;;;;5460577;26;20268;-86
2024/04/10 12:17:33;;;;;;;2.75;1.52;;;14.20;17.70;;;;;;5513116;25;20267;-86
2024/04/10 12:20:02;;;;;;;2.70;1.40;;;14.70;14.30;;;;;;5517697;25;20339;-85
2024/04/10 12:22:28;;;;;;;2.70;1.33;;;14.70;13.80;;;;;;5532743;25;20295;-85
2024/04/10 12:24:59;;;;;;;3.85;1.80;;;14.80;14.10;;;;;;5513508;25;20356;-85
2024/04/10 12:27:33;;;;;;;2.85;1.55;;;15.00;13.00;;;;;;5510271;26;20279;-86
2024/04/10 12:30:01;;;;;;;2.90;1.30;;;14.60;15.20;;;;;;5494277;26;20276;-85
2024/04/10 12:32:27;;;;;;;4.68;1.48;;;14.70;14.90;;;;;;5495571;26;20643;-87
2024/04/10 12:38:02;;;;;;;3.17;1.20;;;14.50;15.30;;;;;;5498081;25;20237;-84
2024/04/10 12:40:43;;;;;;;3.67;1.50;;;14.00;15.90;;;;;;5340836;26;20245;-84
2024/04/10 12:43:12;;;;;;;3.83;2.00;;;14.10;15.60;;;;;;5487407;25;20268;-83
2024/04/10 12:45:41;;;;;;;3.67;1.50;;;14.00;16.70;;;;;;5473815;25;20357;-84
2024/04/10 12:48:07;;;;;;;3.95;1.60;;;13.90;15.70;;;;;;5513895;25;20240;-84
2024/04/10 12:50:36;;;;;;;3.38;1.35;;;14.20;14.20;;;;;;5507200;25;20232;-88
2024/04/10 12:53:02;;;;;;;2.83;1.30;;;14.60;15.90;;;;;;5501690;26;20757;-85
2024/04/10 12:55:31;;;;;;;2.67;1.20;;;14.80;12.50;;;;;;5508319;26;20237;-84
2024/04/10 12:58:00;;;;;;;4.65;1.55;;;14.50;11.50;;;;;;5503515;25;20344;-85
2024/04/10 13:00:28;;;;;;;4.00;1.67;;;14.80;13.40;;;;;;5504494;26;20233;-85
2024/04/10 13:02:54;;;;;;;2.88;1.40;;;14.90;14.60;;;;;;5504292;26;20358;-85